sensor_id;sensor_type;location;lat;lon;timestamp;temperature;humidity
6930;DHT22;3504;52.616;13.238;2023-06-14T00:01:15;15.00;62.20
6930;DHT22;3504;52.616;13.238;2023-06-14T00:06:16;14.86;62.66
6930;DHT22;3504;52.616;13.238;2023-06-14T00:11:17;14.75;62.99
6930;DHT22;3504;52.616;13.238;2023-06-14T00:16:18;14.68;62.84
6930;DHT22;3504;52.616;13.238;2023-06-14T00:21:19;14.60;63.07
6930;DHT22;3504;52.616;13.238;2023-06-14T00:26:20;14.53;63.52
6930;DHT22;3504;52.616;13.238;2023-06-14T00:31:21;14.42;63.65
6930;DHT22;3504;52.616;13.238;2023-06-14T00:36:22;14.33;64.19
6930;DHT22;3504;52.616;13.238;2023-06-14T00:41:23;14.27;64.26
6930;DHT22;3504;52.616;13.238;2023-06-14T00:46:23;14.17;64.77
6930;DHT22;3504;52.616;13.238;2023-06-14T00:51:24;14.12;64.66
6930;DHT22;3504;52.616;13.238;2023-06-14T00:56:25;14.07;64.88
6930;DHT22;3504;52.616;13.238;2023-06-14T01:01:26;13.99;65.48
6930;DHT22;3504;52.616;13.238;2023-06-14T01:06:44;13.92;65.39
6930;DHT22;3504;52.616;13.238;2023-06-14T01:12:01;13.86;65.83
6930;DHT22;3504;52.616;13.238;2023-06-14T01:17:03;13.81;66.38
6930;DHT22;3504;52.616;13.238;2023-06-14T01:22:05;13.75;66.36
6930;DHT22;3504;52.616;13.238;2023-06-14T01:27:06;13.72;66.12
6930;DHT22;3504;52.616;13.238;2023-06-14T01:32:07;13.69;66.28
6930;DHT22;3504;52.616;13.238;2023-06-14T01:37:09;13.65;66.23
6930;DHT22;3504;52.616;13.238;2023-06-14T01:42:11;13.55;66.49
6930;DHT22;3504;52.616;13.238;2023-06-14T01:47:13;13.45;66.71
6930;DHT22;3504;52.616;13.238;2023-06-14T01:52:15;13.39;67.68
6930;DHT22;3504;52.616;13.238;2023-06-14T01:57:17;13.31;67.43
6930;DHT22;3504;52.616;13.238;2023-06-14T02:02:18;13.22;68.07
6930;DHT22;3504;52.616;13.238;2023-06-14T02:07:18;13.11;68.57
6930;DHT22;3504;52.616;13.238;2023-06-14T02:12:19;13.06;68.31
6930;DHT22;3504;52.616;13.238;2023-06-14T02:17:19;13.03;68.26
6930;DHT22;3504;52.616;13.238;2023-06-14T02:22:20;12.97;68.91
6930;DHT22;3504;52.616;13.238;2023-06-14T02:27:22;12.88;69.05
6930;DHT22;3504;52.616;13.238;2023-06-14T02:32:22;12.83;69.24
6930;DHT22;3504;52.616;13.238;2023-06-14T02:37:23;12.81;69.76
6930;DHT22;3504;52.616;13.238;2023-06-14T02:42:23;12.76;70.09
6930;DHT22;3504;52.616;13.238;2023-06-14T02:47:24;12.70;70.60
6930;DHT22;3504;52.616;13.238;2023-06-14T02:52:25;12.63;70.75
6930;DHT22;3504;52.616;13.238;2023-06-14T02:57:26;12.64;71.03
6930;DHT22;3504;52.616;13.238;2023-06-14T03:02:27;12.62;71.00
6930;DHT22;3504;52.616;13.238;2023-06-14T03:07:28;12.57;71.51
6930;DHT22;3504;52.616;13.238;2023-06-14T03:12:30;12.57;70.75
6930;DHT22;3504;52.616;13.238;2023-06-14T03:17:32;12.62;71.12
6930;DHT22;3504;52.616;13.238;2023-06-14T03:22:35;12.62;71.20
6930;DHT22;3504;52.616;13.238;2023-06-14T03:27:36;12.60;71.65
6930;DHT22;3504;52.616;13.238;2023-06-14T03:32:37;12.57;72.21
6930;DHT22;3504;52.616;13.238;2023-06-14T03:37:39;12.55;71.85
6930;DHT22;3504;52.616;13.238;2023-06-14T03:42:40;12.60;71.90
6930;DHT22;3504;52.616;13.238;2023-06-14T03:47:40;12.64;72.29
6930;DHT22;3504;52.616;13.238;2023-06-14T03:52:41;12.63;72.17
6930;DHT22;3504;52.616;13.238;2023-06-14T03:57:44;12.66;73.31
6930;DHT22;3504;52.616;13.238;2023-06-14T04:02:48;12.69;72.65
6930;DHT22;3504;52.616;13.238;2023-06-14T04:07:49;12.77;73.75
6930;DHT22;3504;52.616;13.238;2023-06-14T04:12:51;12.80;73.17
6930;DHT22;3504;52.616;13.238;2023-06-14T04:17:52;12.90;73.10
6930;DHT22;3504;52.616;13.238;2023-06-14T04:22:56;12.97;73.76
6930;DHT22;3504;52.616;13.238;2023-06-14T04:27:57;13.07;73.51
6930;DHT22;3504;52.616;13.238;2023-06-14T04:32:59;13.20;73.78
6930;DHT22;3504;52.616;13.238;2023-06-14T04:38:01;13.35;72.93
6930;DHT22;3504;52.616;13.238;2023-06-14T04:43:02;13.45;73.60
6930;DHT22;3504;52.616;13.238;2023-06-14T04:48:07;13.59;74.38
6930;DHT22;3504;52.616;13.238;2023-06-14T04:53:07;13.76;74.20
6930;DHT22;3504;52.616;13.238;2023-06-14T04:58:09;13.92;74.08
6930;DHT22;3504;52.616;13.238;2023-06-14T05:03:13;14.14;73.90
6930;DHT22;3504;52.616;13.238;2023-06-14T05:08:15;14.38;73.91
6930;DHT22;3504;52.616;13.238;2023-06-14T05:13:16;14.54;73.34
6930;DHT22;3504;52.616;13.238;2023-06-14T05:18:19;14.75;73.27
6930;DHT22;3504;52.616;13.238;2023-06-14T05:23:20;14.85;72.97
6930;DHT22;3504;52.616;13.238;2023-06-14T05:28:21;14.93;72.25
6930;DHT22;3504;52.616;13.238;2023-06-14T05:33:22;15.06;71.95
6930;DHT22;3504;52.616;13.238;2023-06-14T05:38:22;15.29;71.73
6930;DHT22;3504;52.616;13.238;2023-06-14T05:43:23;15.46;71.54
6930;DHT22;3504;52.616;13.238;2023-06-14T05:48:23;15.59;71.35
6930;DHT22;3504;52.616;13.238;2023-06-14T05:53:24;15.73;70.66
6930;DHT22;3504;52.616;13.238;2023-06-14T05:58:24;15.92;70.97
6930;DHT22;3504;52.616;13.238;2023-06-14T06:03:25;15.95;70.00
6930;DHT22;3504;52.616;13.238;2023-06-14T06:08:29;16.22;69.49
6930;DHT22;3504;52.616;13.238;2023-06-14T06:13:30;16.38;68.54
6930;DHT22;3504;52.616;13.238;2023-06-14T06:18:30;16.48;68.86
6930;DHT22;3504;52.616;13.238;2023-06-14T06:23:31;16.60;68.44
6930;DHT22;3504;52.616;13.238;2023-06-14T06:28:31;16.77;68.21
6930;DHT22;3504;52.616;13.238;2023-06-14T06:33:32;16.83;67.01
6930;DHT22;3504;52.616;13.238;2023-06-14T06:38:32;16.80;67.17
6930;DHT22;3504;52.616;13.238;2023-06-14T06:43:33;16.87;67.16
6930;DHT22;3504;52.616;13.238;2023-06-14T06:48:36;17.00;66.21
6930;DHT22;3504;52.616;13.238;2023-06-14T06:53:36;17.07;65.76
6930;DHT22;3504;52.616;13.238;2023-06-14T06:58:37;17.20;65.94
6930;DHT22;3504;52.616;13.238;2023-06-14T07:03:38;17.55;65.69
6930;DHT22;3504;52.616;13.238;2023-06-14T07:08:38;17.85;63.66
6930;DHT22;3504;52.616;13.238;2023-06-14T07:13:39;17.90;63.01
6930;DHT22;3504;52.616;13.238;2023-06-14T07:18:39;17.97;63.09
6930;DHT22;3504;52.616;13.238;2023-06-14T07:23:40;18.20;63.42
6930;DHT22;3504;52.616;13.238;2023-06-14T07:28:40;18.41;62.77
6930;DHT22;3504;52.616;13.238;2023-06-14T07:33:42;18.61;61.24
6930;DHT22;3504;52.616;13.238;2023-06-14T07:38:42;18.82;62.30
6930;DHT22;3504;52.616;13.238;2023-06-14T07:43:43;19.05;60.84
6930;DHT22;3504;52.616;13.238;2023-06-14T07:48:46;19.28;60.47
6930;DHT22;3504;52.616;13.238;2023-06-14T07:53:48;19.51;59.53
6930;DHT22;3504;52.616;13.238;2023-06-14T07:58:49;19.51;59.04
6930;DHT22;3504;52.616;13.238;2023-06-14T08:03:49;20.01;59.23
6930;DHT22;3504;52.616;13.238;2023-06-14T08:08:50;20.11;57.75
6930;DHT22;3504;52.616;13.238;2023-06-14T08:13:51;20.52;55.90
6930;DHT22;3504;52.616;13.238;2023-06-14T08:18:51;20.52;55.57
6930;DHT22;3504;52.616;13.238;2023-06-14T08:23:55;20.57;55.86
6930;DHT22;3504;52.616;13.238;2023-06-14T08:28:56;20.76;54.68
6930;DHT22;3504;52.616;13.238;2023-06-14T08:33:56;21.06;53.54
6930;DHT22;3504;52.616;13.238;2023-06-14T08:38:57;21.20;52.69
6930;DHT22;3504;52.616;13.238;2023-06-14T08:43:58;21.61;53.61
6930;DHT22;3504;52.616;13.238;2023-06-14T08:48:59;22.25;51.17
6930;DHT22;3504;52.616;13.238;2023-06-14T08:54:01;22.13;49.80
6930;DHT22;3504;52.616;13.238;2023-06-14T08:59:04;21.95;50.72
6930;DHT22;3504;52.616;13.238;2023-06-14T09:04:06;21.82;50.36
6930;DHT22;3504;52.616;13.238;2023-06-14T09:09:07;21.91;50.76
6930;DHT22;3504;52.616;13.238;2023-06-14T09:14:08;21.83;50.61
6930;DHT22;3504;52.616;13.238;2023-06-14T09:19:29;21.78;50.24
6930;DHT22;3504;52.616;13.238;2023-06-14T09:24:29;21.99;50.36
6930;DHT22;3504;52.616;13.238;2023-06-14T09:29:30;21.98;48.24
6930;DHT22;3504;52.616;13.238;2023-06-14T09:34:34;21.92;47.30
6930;DHT22;3504;52.616;13.238;2023-06-14T09:39:35;22.19;47.61
6930;DHT22;3504;52.616;13.238;2023-06-14T09:44:35;22.53;47.37
6930;DHT22;3504;52.616;13.238;2023-06-14T09:49:36;22.64;44.55
6930;DHT22;3504;52.616;13.238;2023-06-14T09:54:41;22.73;44.58
6930;DHT22;3504;52.616;13.238;2023-06-14T09:59:47;22.60;44.98
6930;DHT22;3504;52.616;13.238;2023-06-14T10:05:12;22.59;44.85
6930;DHT22;3504;52.616;13.238;2023-06-14T10:10:13;22.56;45.72
6930;DHT22;3504;52.616;13.238;2023-06-14T10:15:26;22.39;44.70
6930;DHT22;3504;52.616;13.238;2023-06-14T10:20:58;22.39;45.39
6930;DHT22;3504;52.616;13.238;2023-06-14T10:26:04;22.56;45.49
6930;DHT22;3504;52.616;13.238;2023-06-14T10:31:10;22.67;45.05
6930;DHT22;3504;52.616;13.238;2023-06-14T10:36:42;22.77;44.53
6930;DHT22;3504;52.616;13.238;2023-06-14T10:41:56;22.88;45.21
6930;DHT22;3504;52.616;13.238;2023-06-14T10:47:01;23.04;43.89
6930;DHT22;3504;52.616;13.238;2023-06-14T10:52:03;23.29;43.71
6930;DHT22;3504;52.616;13.238;2023-06-14T10:57:06;23.31;44.68
6930;DHT22;3504;52.616;13.238;2023-06-14T11:13:07;24.03;42.77
6930;DHT22;3504;52.616;13.238;2023-06-14T11:18:08;24.16;40.32
6930;DHT22;3504;52.616;13.238;2023-06-14T11:23:11;24.33;40.28
6930;DHT22;3504;52.616;13.238;2023-06-14T11:28:12;24.99;39.22
6930;DHT22;3504;52.616;13.238;2023-06-14T11:33:17;25.39;37.04
6930;DHT22;3504;52.616;13.238;2023-06-14T11:38:21;25.24;37.94
6930;DHT22;3504;52.616;13.238;2023-06-14T11:43:21;25.01;37.27
6930;DHT22;3504;52.616;13.238;2023-06-14T11:48:22;24.91;36.98
6930;DHT22;3504;52.616;13.238;2023-06-14T11:53:22;24.79;36.05
6930;DHT22;3504;52.616;13.238;2023-06-14T11:58:23;24.75;37.54
6930;DHT22;3504;52.616;13.238;2023-06-14T12:03:25;24.61;35.76
6930;DHT22;3504;52.616;13.238;2023-06-14T12:08:36;24.62;37.80
6930;DHT22;3504;52.616;13.238;2023-06-14T12:13:41;24.94;36.65
6930;DHT22;3504;52.616;13.238;2023-06-14T12:18:41;25.43;35.66
6930;DHT22;3504;52.616;13.238;2023-06-14T12:23:48;25.78;34.84
6930;DHT22;3504;52.616;13.238;2023-06-14T12:28:51;25.97;34.33
6930;DHT22;3504;52.616;13.238;2023-06-14T12:33:51;26.20;35.40
6930;DHT22;3504;52.616;13.238;2023-06-14T12:38:52;26.25;34.57
6930;DHT22;3504;52.616;13.238;2023-06-14T12:43:55;26.42;33.81
6930;DHT22;3504;52.616;13.238;2023-06-14T12:48:58;26.55;34.22
6930;DHT22;3504;52.616;13.238;2023-06-14T12:53:58;26.73;32.84
6930;DHT22;3504;52.616;13.238;2023-06-14T12:58:59;26.80;32.91
6930;DHT22;3504;52.616;13.238;2023-06-14T13:03:59;27.11;32.11
6930;DHT22;3504;52.616;13.238;2023-06-14T13:09:00;27.17;30.26
6930;DHT22;3504;52.616;13.238;2023-06-14T13:14:01;26.69;30.64
6930;DHT22;3504;52.616;13.238;2023-06-14T13:19:02;26.38;30.89
6930;DHT22;3504;52.616;13.238;2023-06-14T13:24:03;26.20;30.45
6930;DHT22;3504;52.616;13.238;2023-06-14T13:29:03;26.34;30.27
6930;DHT22;3504;52.616;13.238;2023-06-14T13:34:04;26.59;29.62
6930;DHT22;3504;52.616;13.238;2023-06-14T13:39:04;26.15;29.18
6930;DHT22;3504;52.616;13.238;2023-06-14T13:44:05;25.64;29.96
6930;DHT22;3504;52.616;13.238;2023-06-14T13:49:06;25.22;33.38
6930;DHT22;3504;52.616;13.238;2023-06-14T13:54:06;24.82;34.80
6930;DHT22;3504;52.616;13.238;2023-06-14T13:59:07;24.57;35.51
6930;DHT22;3504;52.616;13.238;2023-06-14T14:04:08;24.22;36.12
6930;DHT22;3504;52.616;13.238;2023-06-14T14:09:08;23.99;36.44
6930;DHT22;3504;52.616;13.238;2023-06-14T14:14:09;23.79;36.60
6930;DHT22;3504;52.616;13.238;2023-06-14T14:19:10;23.63;37.18
6930;DHT22;3504;52.616;13.238;2023-06-14T14:24:11;23.48;37.73
6930;DHT22;3504;52.616;13.238;2023-06-14T14:29:11;23.34;37.33
6930;DHT22;3504;52.616;13.238;2023-06-14T14:34:12;23.29;38.12
6930;DHT22;3504;52.616;13.238;2023-06-14T14:39:13;23.22;37.94
6930;DHT22;3504;52.616;13.238;2023-06-14T14:44:13;23.19;38.38
6930;DHT22;3504;52.616;13.238;2023-06-14T14:49:17;23.21;39.07
6930;DHT22;3504;52.616;13.238;2023-06-14T14:54:17;23.17;39.23
6930;DHT22;3504;52.616;13.238;2023-06-14T14:59:17;23.10;38.46
6930;DHT22;3504;52.616;13.238;2023-06-14T15:04:19;22.95;38.87
6930;DHT22;3504;52.616;13.238;2023-06-14T15:09:19;22.94;39.28
6930;DHT22;3504;52.616;13.238;2023-06-14T15:14:20;22.90;39.62
6930;DHT22;3504;52.616;13.238;2023-06-14T15:19:23;22.87;39.72
6930;DHT22;3504;52.616;13.238;2023-06-14T15:24:24;22.83;39.50
6930;DHT22;3504;52.616;13.238;2023-06-14T15:29:24;22.87;40.44
6930;DHT22;3504;52.616;13.238;2023-06-14T15:34:25;22.90;39.89
6930;DHT22;3504;52.616;13.238;2023-06-14T15:39:26;22.81;39.85
6930;DHT22;3504;52.616;13.238;2023-06-14T15:44:27;22.83;40.18
6930;DHT22;3504;52.616;13.238;2023-06-14T15:49:28;22.87;40.21
6930;DHT22;3504;52.616;13.238;2023-06-14T15:54:28;22.88;40.12
6930;DHT22;3504;52.616;13.238;2023-06-14T15:59:29;22.83;39.22
6930;DHT22;3504;52.616;13.238;2023-06-14T16:04:29;22.84;39.08
6930;DHT22;3504;52.616;13.238;2023-06-14T16:09:32;22.83;39.61
6930;DHT22;3504;52.616;13.238;2023-06-14T16:14:33;22.86;39.29
6930;DHT22;3504;52.616;13.238;2023-06-14T16:19:34;22.95;40.18
6930;DHT22;3504;52.616;13.238;2023-06-14T16:24:34;23.04;40.15
6930;DHT22;3504;52.616;13.238;2023-06-14T16:29:36;23.05;38.49
6930;DHT22;3504;52.616;13.238;2023-06-14T16:34:37;23.17;39.14
6930;DHT22;3504;52.616;13.238;2023-06-14T16:39:37;23.12;38.16
6930;DHT22;3504;52.616;13.238;2023-06-14T16:44:38;23.15;38.86
6930;DHT22;3504;52.616;13.238;2023-06-14T16:49:38;23.14;38.68
6930;DHT22;3504;52.616;13.238;2023-06-14T16:54:39;23.15;39.60
6930;DHT22;3504;52.616;13.238;2023-06-14T16:59:40;23.02;38.97
6930;DHT22;3504;52.616;13.238;2023-06-14T17:04:40;22.95;39.49
6930;DHT22;3504;52.616;13.238;2023-06-14T17:09:41;22.81;39.83
6930;DHT22;3504;52.616;13.238;2023-06-14T17:14:42;22.63;39.91
6930;DHT22;3504;52.616;13.238;2023-06-14T17:19:44;22.59;40.57
6930;DHT22;3504;52.616;13.238;2023-06-14T17:24:47;22.56;40.58
6930;DHT22;3504;52.616;13.238;2023-06-14T17:29:48;22.52;40.58
6930;DHT22;3504;52.616;13.238;2023-06-14T17:34:48;22.43;40.95
6930;DHT22;3504;52.616;13.238;2023-06-14T17:39:49;22.29;41.30
6930;DHT22;3504;52.616;13.238;2023-06-14T17:44:49;22.23;41.67
6930;DHT22;3504;52.616;13.238;2023-06-14T17:49:52;22.12;42.06
6930;DHT22;3504;52.616;13.238;2023-06-14T17:54:54;22.04;41.69
6930;DHT22;3504;52.616;13.238;2023-06-14T17:59:54;22.01;42.26
6930;DHT22;3504;52.616;13.238;2023-06-14T18:04:56;22.01;42.11
6930;DHT22;3504;52.616;13.238;2023-06-14T18:09:57;21.95;42.28
6930;DHT22;3504;52.616;13.238;2023-06-14T18:14:57;21.88;42.26
6930;DHT22;3504;52.616;13.238;2023-06-14T18:19:58;21.85;42.55
6930;DHT22;3504;52.616;13.238;2023-06-14T18:24:58;21.76;42.87
6930;DHT22;3504;52.616;13.238;2023-06-14T18:29:59;21.72;42.67
6930;DHT22;3504;52.616;13.238;2023-06-14T18:34:59;21.71;43.00
6930;DHT22;3504;52.616;13.238;2023-06-14T18:40:00;21.65;42.95
6930;DHT22;3504;52.616;13.238;2023-06-14T18:45:02;21.62;43.47
6930;DHT22;3504;52.616;13.238;2023-06-14T18:50:03;21.57;43.32
6930;DHT22;3504;52.616;13.238;2023-06-14T18:55:04;21.50;43.73
6930;DHT22;3504;52.616;13.238;2023-06-14T19:00:06;21.47;44.17
6930;DHT22;3504;52.616;13.238;2023-06-14T19:05:07;21.38;43.96
6930;DHT22;3504;52.616;13.238;2023-06-14T19:10:08;21.33;45.42
6930;DHT22;3504;52.616;13.238;2023-06-14T19:15:09;21.28;44.98
6930;DHT22;3504;52.616;13.238;2023-06-14T19:20:10;21.20;45.48
6930;DHT22;3504;52.616;13.238;2023-06-14T19:25:10;21.14;46.09
6930;DHT22;3504;52.616;13.238;2023-06-14T19:30:11;21.06;46.78
6930;DHT22;3504;52.616;13.238;2023-06-14T19:35:12;20.97;46.21
6930;DHT22;3504;52.616;13.238;2023-06-14T19:40:13;20.92;46.28
6930;DHT22;3504;52.616;13.238;2023-06-14T19:45:13;20.89;47.11
6930;DHT22;3504;52.616;13.238;2023-06-14T19:50:14;20.82;46.50
6930;DHT22;3504;52.616;13.238;2023-06-14T19:55:14;20.75;46.85
6930;DHT22;3504;52.616;13.238;2023-06-14T20:00:15;20.65;47.14
6930;DHT22;3504;52.616;13.238;2023-06-14T20:05:16;20.57;47.40
6930;DHT22;3504;52.616;13.238;2023-06-14T20:10:17;20.52;47.71
6930;DHT22;3504;52.616;13.238;2023-06-14T20:15:18;20.45;47.33
6930;DHT22;3504;52.616;13.238;2023-06-14T20:20:18;20.39;48.06
6930;DHT22;3504;52.616;13.238;2023-06-14T20:25:18;20.33;47.88
6930;DHT22;3504;52.616;13.238;2023-06-14T20:30:19;20.26;48.11
6930;DHT22;3504;52.616;13.238;2023-06-14T20:35:20;20.17;48.07
6930;DHT22;3504;52.616;13.238;2023-06-14T20:40:22;20.05;47.88
6930;DHT22;3504;52.616;13.238;2023-06-14T20:45:23;20.01;48.34
6930;DHT22;3504;52.616;13.238;2023-06-14T20:50:24;19.98;48.50
6930;DHT22;3504;52.616;13.238;2023-06-14T20:55:25;19.96;48.57
6930;DHT22;3504;52.616;13.238;2023-06-14T21:00:28;19.91;48.64
6930;DHT22;3504;52.616;13.238;2023-06-14T21:05:30;19.88;48.67
6930;DHT22;3504;52.616;13.238;2023-06-14T21:10:30;19.84;49.59
6930;DHT22;3504;52.616;13.238;2023-06-14T21:15:31;19.77;49.78
6930;DHT22;3504;52.616;13.238;2023-06-14T21:20:32;19.66;49.43
6930;DHT22;3504;52.616;13.238;2023-06-14T21:25:33;19.54;49.74
6930;DHT22;3504;52.616;13.238;2023-06-14T21:30:35;19.47;49.58
6930;DHT22;3504;52.616;13.238;2023-06-14T21:35:35;19.35;49.21
6930;DHT22;3504;52.616;13.238;2023-06-14T21:40:36;19.25;49.21
6930;DHT22;3504;52.616;13.238;2023-06-14T21:45:36;19.13;49.26
6930;DHT22;3504;52.616;13.238;2023-06-14T21:50:37;19.10;50.01
6930;DHT22;3504;52.616;13.238;2023-06-14T21:55:39;18.96;49.92
6930;DHT22;3504;52.616;13.238;2023-06-14T22:00:39;18.87;50.34
6930;DHT22;3504;52.616;13.238;2023-06-14T22:05:40;18.74;50.42
6930;DHT22;3504;52.616;13.238;2023-06-14T22:10:41;18.65;50.80
6930;DHT22;3504;52.616;13.238;2023-06-14T22:15:41;18.53;51.27
6930;DHT22;3504;52.616;13.238;2023-06-14T22:20:45;18.41;51.82
6930;DHT22;3504;52.616;13.238;2023-06-14T22:25:45;18.34;52.11
6930;DHT22;3504;52.616;13.238;2023-06-14T22:30:46;18.26;51.88
6930;DHT22;3504;52.616;13.238;2023-06-14T22:35:48;18.20;52.04
6930;DHT22;3504;52.616;13.238;2023-06-14T22:40:49;18.10;52.15
6930;DHT22;3504;52.616;13.238;2023-06-14T22:45:50;17.99;52.30
6930;DHT22;3504;52.616;13.238;2023-06-14T22:50:54;17.89;53.25
6930;DHT22;3504;52.616;13.238;2023-06-14T22:55:55;17.76;53.06
6930;DHT22;3504;52.616;13.238;2023-06-14T23:00:55;17.65;53.13
6930;DHT22;3504;52.616;13.238;2023-06-14T23:19:19;17.21;55.11
6930;DHT22;3504;52.616;13.238;2023-06-14T23:24:20;17.10;55.50
6930;DHT22;3504;52.616;13.238;2023-06-14T23:29:21;16.94;55.80
6930;DHT22;3504;52.616;13.238;2023-06-14T23:34:23;16.82;55.90
6930;DHT22;3504;52.616;13.238;2023-06-14T23:39:26;16.70;56.62
6930;DHT22;3504;52.616;13.238;2023-06-14T23:44:27;16.60;57.02
6930;DHT22;3504;52.616;13.238;2023-06-14T23:49:30;16.43;57.54
6930;DHT22;3504;52.616;13.238;2023-06-14T23:54:31;16.35;57.53
6930;DHT22;3504;52.616;13.238;2023-06-14T23:59:33;16.21;58.65
